sensor_id;sensor_type;location;lat;lon;timestamp;P1;durP1;ratioP1;P2;durP2;ratioP2
78131;SDS011;67381;47.672;9.380;2023-08-17T00:00:25;5.28;;;1.70;;
78131;SDS011;67381;47.672;9.380;2023-08-17T00:02:52;5.00;;;2.15;;
78131;SDS011;67381;47.672;9.380;2023-08-17T00:05:19;6.32;;;2.42;;
78131;SDS011;67381;47.672;9.380;2023-08-17T00:07:47;5.80;;;2.58;;
78131;SDS011;67381;47.672;9.380;2023-08-17T00:10:14;4.57;;;2.83;;
78131;SDS011;67381;47.672;9.380;2023-08-17T00:12:42;5.57;;;2.58;;
78131;SDS011;67381;47.672;9.380;2023-08-17T00:15:09;4.28;;;2.53;;
78131;SDS011;67381;47.672;9.380;2023-08-17T00:17:37;8.27;;;3.10;;
78131;SDS011;67381;47.672;9.380;2023-08-17T00:20:05;6.78;;;3.10;;
78131;SDS011;67381;47.672;9.380;2023-08-17T00:22:33;4.68;;;2.70;;
78131;SDS011;67381;47.672;9.380;2023-08-17T00:25:01;5.45;;;3.10;;
78131;SDS011;67381;47.672;9.380;2023-08-17T00:27:31;4.65;;;2.25;;
78131;SDS011;67381;47.672;9.380;2023-08-17T00:29:59;3.20;;;1.90;;
78131;SDS011;67381;47.672;9.380;2023-08-17T00:32:26;4.00;;;2.00;;
78131;SDS011;67381;47.672;9.380;2023-08-17T00:34:54;5.75;;;1.70;;
78131;SDS011;67381;47.672;9.380;2023-08-17T00:37:21;6.13;;;2.30;;
78131;SDS011;67381;47.672;9.380;2023-08-17T00:39:48;2.83;;;1.63;;
78131;SDS011;67381;47.672;9.380;2023-08-17T00:42:16;6.95;;;2.92;;
78131;SDS011;67381;47.672;9.380;2023-08-17T00:44:43;3.35;;;2.10;;
78131;SDS011;67381;47.672;9.380;2023-08-17T00:47:10;5.50;;;2.55;;
78131;SDS011;67381;47.672;9.380;2023-08-17T00:49:38;5.00;;;2.60;;
78131;SDS011;67381;47.672;9.380;2023-08-17T00:52:05;4.38;;;2.83;;
78131;SDS011;67381;47.672;9.380;2023-08-17T00:54:33;6.05;;;2.60;;
78131;SDS011;67381;47.672;9.380;2023-08-17T00:57:00;5.10;;;2.70;;
78131;SDS011;67381;47.672;9.380;2023-08-17T00:59:27;6.38;;;3.35;;
78131;SDS011;67381;47.672;9.380;2023-08-17T01:01:59;8.70;;;3.00;;
78131;SDS011;67381;47.672;9.380;2023-08-17T01:04:26;8.23;;;3.22;;
78131;SDS011;67381;47.672;9.380;2023-08-17T01:06:53;4.18;;;2.78;;
78131;SDS011;67381;47.672;9.380;2023-08-17T01:09:21;7.63;;;3.25;;
78131;SDS011;67381;47.672;9.380;2023-08-17T01:17:52;4.35;;;2.97;;
78131;SDS011;67381;47.672;9.380;2023-08-17T01:20:23;6.47;;;3.65;;
78131;SDS011;67381;47.672;9.380;2023-08-17T01:22:51;4.82;;;2.85;;
78131;SDS011;67381;47.672;9.380;2023-08-17T01:25:20;8.13;;;3.40;;
78131;SDS011;67381;47.672;9.380;2023-08-17T01:27:48;6.18;;;3.30;;
78131;SDS011;67381;47.672;9.380;2023-08-17T01:30:15;7.38;;;3.05;;
78131;SDS011;67381;47.672;9.380;2023-08-17T01:35:52;5.80;;;3.42;;
78131;SDS011;67381;47.672;9.380;2023-08-17T01:38:23;5.88;;;3.38;;
78131;SDS011;67381;47.672;9.380;2023-08-17T01:40:52;4.97;;;3.35;;
78131;SDS011;67381;47.672;9.380;2023-08-17T01:43:20;5.60;;;2.90;;
78131;SDS011;67381;47.672;9.380;2023-08-17T01:45:48;4.78;;;2.90;;
78131;SDS011;67381;47.672;9.380;2023-08-17T01:48:15;5.95;;;3.20;;
78131;SDS011;67381;47.672;9.380;2023-08-17T01:50:43;7.90;;;3.33;;
78131;SDS011;67381;47.672;9.380;2023-08-17T01:53:10;7.20;;;3.40;;
78131;SDS011;67381;47.672;9.380;2023-08-17T01:55:38;6.82;;;3.28;;
78131;SDS011;67381;47.672;9.380;2023-08-17T01:58:06;7.38;;;3.55;;
78131;SDS011;67381;47.672;9.380;2023-08-17T02:00:34;9.38;;;3.53;;
78131;SDS011;67381;47.672;9.380;2023-08-17T02:03:01;5.55;;;3.20;;
78131;SDS011;67381;47.672;9.380;2023-08-17T02:05:28;8.02;;;3.40;;
78131;SDS011;67381;47.672;9.380;2023-08-17T02:07:56;5.82;;;3.72;;
78131;SDS011;67381;47.672;9.380;2023-08-17T02:10:23;6.25;;;3.35;;
78131;SDS011;67381;47.672;9.380;2023-08-17T02:12:51;6.15;;;2.95;;
78131;SDS011;67381;47.672;9.380;2023-08-17T02:15:20;5.65;;;3.58;;
78131;SDS011;67381;47.672;9.380;2023-08-17T02:17:48;9.45;;;5.38;;
78131;SDS011;67381;47.672;9.380;2023-08-17T02:20:15;5.85;;;3.20;;
78131;SDS011;67381;47.672;9.380;2023-08-17T02:22:43;5.25;;;3.22;;
78131;SDS011;67381;47.672;9.380;2023-08-17T02:25:10;5.63;;;3.67;;
78131;SDS011;67381;47.672;9.380;2023-08-17T02:27:37;8.55;;;3.80;;
78131;SDS011;67381;47.672;9.380;2023-08-17T02:30:05;5.10;;;3.80;;
78131;SDS011;67381;47.672;9.380;2023-08-17T02:32:33;5.25;;;3.55;;
78131;SDS011;67381;47.672;9.380;2023-08-17T02:35:00;6.07;;;3.45;;
78131;SDS011;67381;47.672;9.380;2023-08-17T02:37:28;4.55;;;2.78;;
78131;SDS011;67381;47.672;9.380;2023-08-17T02:39:56;10.23;;;3.05;;
78131;SDS011;67381;47.672;9.380;2023-08-17T02:42:24;5.40;;;3.30;;
78131;SDS011;67381;47.672;9.380;2023-08-17T02:44:53;6.65;;;3.55;;
78131;SDS011;67381;47.672;9.380;2023-08-17T02:47:21;6.35;;;3.78;;
78131;SDS011;67381;47.672;9.380;2023-08-17T02:49:48;5.25;;;3.42;;
78131;SDS011;67381;47.672;9.380;2023-08-17T02:52:16;5.22;;;3.47;;
78131;SDS011;67381;47.672;9.380;2023-08-17T02:54:43;4.32;;;3.00;;
78131;SDS011;67381;47.672;9.380;2023-08-17T02:57:11;5.93;;;3.47;;
78131;SDS011;67381;47.672;9.380;2023-08-17T02:59:39;9.32;;;3.50;;
78131;SDS011;67381;47.672;9.380;2023-08-17T03:02:06;5.57;;;3.38;;
78131;SDS011;67381;47.672;9.380;2023-08-17T03:04:35;5.10;;;3.53;;
78131;SDS011;67381;47.672;9.380;2023-08-17T03:07:02;7.60;;;3.53;;
78131;SDS011;67381;47.672;9.380;2023-08-17T03:09:29;5.68;;;3.20;;
78131;SDS011;67381;47.672;9.380;2023-08-17T03:11:57;7.20;;;3.22;;
78131;SDS011;67381;47.672;9.380;2023-08-17T03:14:24;4.57;;;3.05;;
78131;SDS011;67381;47.672;9.380;2023-08-17T03:16:51;7.70;;;3.20;;
78131;SDS011;67381;47.672;9.380;2023-08-17T03:19:19;5.28;;;2.95;;
78131;SDS011;67381;47.672;9.380;2023-08-17T03:21:47;7.03;;;2.88;;
78131;SDS011;67381;47.672;9.380;2023-08-17T03:24:15;6.50;;;3.20;;
78131;SDS011;67381;47.672;9.380;2023-08-17T03:26:42;5.75;;;3.25;;
78131;SDS011;67381;47.672;9.380;2023-08-17T03:29:10;5.43;;;2.85;;
78131;SDS011;67381;47.672;9.380;2023-08-17T03:31:37;7.43;;;4.13;;
78131;SDS011;67381;47.672;9.380;2023-08-17T03:34:07;7.05;;;3.83;;
78131;SDS011;67381;47.672;9.380;2023-08-17T03:36:35;7.57;;;3.40;;
78131;SDS011;67381;47.672;9.380;2023-08-17T03:39:02;6.43;;;4.03;;
78131;SDS011;67381;47.672;9.380;2023-08-17T03:41:30;7.32;;;3.88;;
78131;SDS011;67381;47.672;9.380;2023-08-17T03:43:58;7.30;;;4.28;;
78131;SDS011;67381;47.672;9.380;2023-08-17T03:46:25;8.98;;;3.80;;
78131;SDS011;67381;47.672;9.380;2023-08-17T03:48:53;8.40;;;4.28;;
78131;SDS011;67381;47.672;9.380;2023-08-17T03:51:20;5.93;;;3.47;;
78131;SDS011;67381;47.672;9.380;2023-08-17T03:53:47;5.70;;;3.50;;
78131;SDS011;67381;47.672;9.380;2023-08-17T03:56:15;7.43;;;4.10;;
78131;SDS011;67381;47.672;9.380;2023-08-17T03:58:42;6.88;;;4.18;;
78131;SDS011;67381;47.672;9.380;2023-08-17T04:01:10;4.38;;;3.50;;
78131;SDS011;67381;47.672;9.380;2023-08-17T04:03:40;5.93;;;3.92;;
78131;SDS011;67381;47.672;9.380;2023-08-17T04:06:08;5.50;;;3.88;;
78131;SDS011;67381;47.672;9.380;2023-08-17T04:08:37;6.35;;;3.58;;
78131;SDS011;67381;47.672;9.380;2023-08-17T04:11:05;9.13;;;3.65;;
78131;SDS011;67381;47.672;9.380;2023-08-17T04:13:33;7.85;;;3.80;;
78131;SDS011;67381;47.672;9.380;2023-08-17T04:16:00;7.38;;;3.47;;
78131;SDS011;67381;47.672;9.380;2023-08-17T04:18:27;5.40;;;3.33;;
78131;SDS011;67381;47.672;9.380;2023-08-17T04:20:55;8.88;;;3.67;;
78131;SDS011;67381;47.672;9.380;2023-08-17T04:23:22;5.78;;;3.95;;
78131;SDS011;67381;47.672;9.380;2023-08-17T04:25:49;5.68;;;3.20;;
78131;SDS011;67381;47.672;9.380;2023-08-17T04:28:17;5.32;;;3.47;;
78131;SDS011;67381;47.672;9.380;2023-08-17T04:30:45;9.70;;;3.80;;
78131;SDS011;67381;47.672;9.380;2023-08-17T04:33:12;7.18;;;3.35;;
78131;SDS011;67381;47.672;9.380;2023-08-17T04:35:40;8.25;;;4.60;;
78131;SDS011;67381;47.672;9.380;2023-08-17T04:38:08;7.22;;;3.50;;
78131;SDS011;67381;47.672;9.380;2023-08-17T04:40:36;7.30;;;3.42;;
78131;SDS011;67381;47.672;9.380;2023-08-17T04:43:04;7.20;;;4.38;;
78131;SDS011;67381;47.672;9.380;2023-08-17T04:45:31;7.85;;;3.72;;
78131;SDS011;67381;47.672;9.380;2023-08-17T04:47:58;5.72;;;3.05;;
78131;SDS011;67381;47.672;9.380;2023-08-17T04:50:26;5.82;;;3.60;;
78131;SDS011;67381;47.672;9.380;2023-08-17T04:52:53;7.95;;;3.92;;
78131;SDS011;67381;47.672;9.380;2023-08-17T04:55:21;5.55;;;3.28;;
78131;SDS011;67381;47.672;9.380;2023-08-17T04:57:48;8.30;;;3.08;;
78131;SDS011;67381;47.672;9.380;2023-08-17T05:00:16;6.63;;;3.33;;
78131;SDS011;67381;47.672;9.380;2023-08-17T05:02:44;6.60;;;3.10;;
78131;SDS011;67381;47.672;9.380;2023-08-17T05:05:12;7.13;;;3.45;;
78131;SDS011;67381;47.672;9.380;2023-08-17T05:07:40;5.60;;;2.97;;
78131;SDS011;67381;47.672;9.380;2023-08-17T05:10:07;5.05;;;2.63;;
78131;SDS011;67381;47.672;9.380;2023-08-17T05:12:37;6.18;;;3.10;;
78131;SDS011;67381;47.672;9.380;2023-08-17T05:15:05;4.53;;;2.80;;
78131;SDS011;67381;47.672;9.380;2023-08-17T05:17:34;9.02;;;3.20;;
78131;SDS011;67381;47.672;9.380;2023-08-17T05:20:03;4.72;;;2.70;;
78131;SDS011;67381;47.672;9.380;2023-08-17T05:22:31;5.05;;;2.72;;
78131;SDS011;67381;47.672;9.380;2023-08-17T05:24:59;4.57;;;2.75;;
78131;SDS011;67381;47.672;9.380;2023-08-17T05:27:27;6.43;;;2.63;;
78131;SDS011;67381;47.672;9.380;2023-08-17T05:29:55;7.88;;;2.50;;
78131;SDS011;67381;47.672;9.380;2023-08-17T05:32:22;6.10;;;2.45;;
78131;SDS011;67381;47.672;9.380;2023-08-17T05:34:52;4.53;;;2.55;;
78131;SDS011;67381;47.672;9.380;2023-08-17T05:37:20;4.20;;;2.13;;
78131;SDS011;67381;47.672;9.380;2023-08-17T05:39:47;4.03;;;2.47;;
78131;SDS011;67381;47.672;9.380;2023-08-17T05:42:15;4.07;;;2.50;;
78131;SDS011;67381;47.672;9.380;2023-08-17T05:44:44;6.57;;;2.30;;
78131;SDS011;67381;47.672;9.380;2023-08-17T05:47:11;6.80;;;2.15;;
78131;SDS011;67381;47.672;9.380;2023-08-17T05:49:42;4.22;;;2.28;;
78131;SDS011;67381;47.672;9.380;2023-08-17T05:52:09;4.60;;;2.40;;
78131;SDS011;67381;47.672;9.380;2023-08-17T05:54:36;6.93;;;2.40;;
78131;SDS011;67381;47.672;9.380;2023-08-17T05:57:04;4.15;;;2.25;;
78131;SDS011;67381;47.672;9.380;2023-08-17T05:59:31;9.75;;;2.45;;
78131;SDS011;67381;47.672;9.380;2023-08-17T06:01:59;4.78;;;2.60;;
78131;SDS011;67381;47.672;9.380;2023-08-17T06:04:26;4.60;;;2.67;;
78131;SDS011;67381;47.672;9.380;2023-08-17T06:06:54;5.85;;;2.40;;
78131;SDS011;67381;47.672;9.380;2023-08-17T06:09:21;9.70;;;2.00;;
78131;SDS011;67381;47.672;9.380;2023-08-17T06:11:49;2.97;;;1.80;;
78131;SDS011;67381;47.672;9.380;2023-08-17T06:14:17;8.93;;;2.38;;
78131;SDS011;67381;47.672;9.380;2023-08-17T06:16:44;7.85;;;2.10;;
78131;SDS011;67381;47.672;9.380;2023-08-17T06:19:11;4.53;;;2.10;;
78131;SDS011;67381;47.672;9.380;2023-08-17T06:21:39;6.70;;;2.95;;
78131;SDS011;67381;47.672;9.380;2023-08-17T06:24:06;4.72;;;2.28;;
78131;SDS011;67381;47.672;9.380;2023-08-17T06:26:33;3.88;;;2.20;;
78131;SDS011;67381;47.672;9.380;2023-08-17T06:29:01;5.85;;;1.98;;
78131;SDS011;67381;47.672;9.380;2023-08-17T06:31:30;7.80;;;2.25;;
78131;SDS011;67381;47.672;9.380;2023-08-17T06:33:57;5.00;;;2.60;;
78131;SDS011;67381;47.672;9.380;2023-08-17T06:36:25;5.90;;;2.40;;
78131;SDS011;67381;47.672;9.380;2023-08-17T06:38:52;12.43;;;2.05;;
78131;SDS011;67381;47.672;9.380;2023-08-17T06:41:20;9.05;;;1.88;;
78131;SDS011;67381;47.672;9.380;2023-08-17T06:43:47;7.05;;;2.42;;
78131;SDS011;67381;47.672;9.380;2023-08-17T06:46:14;6.85;;;2.25;;
78131;SDS011;67381;47.672;9.380;2023-08-17T06:48:42;5.57;;;2.15;;
78131;SDS011;67381;47.672;9.380;2023-08-17T06:51:10;10.13;;;2.22;;
78131;SDS011;67381;47.672;9.380;2023-08-17T06:53:37;5.00;;;2.50;;
78131;SDS011;67381;47.672;9.380;2023-08-17T06:56:05;11.52;;;2.50;;
78131;SDS011;67381;47.672;9.380;2023-08-17T06:58:33;7.55;;;2.30;;
78131;SDS011;67381;47.672;9.380;2023-08-17T07:01:00;8.45;;;2.28;;
78131;SDS011;67381;47.672;9.380;2023-08-17T07:03:27;6.18;;;2.50;;
78131;SDS011;67381;47.672;9.380;2023-08-17T07:05:55;6.80;;;2.30;;
78131;SDS011;67381;47.672;9.380;2023-08-17T07:08:22;7.20;;;2.33;;
78131;SDS011;67381;47.672;9.380;2023-08-17T07:10:49;5.43;;;2.45;;
78131;SDS011;67381;47.672;9.380;2023-08-17T07:13:17;5.38;;;2.40;;
78131;SDS011;67381;47.672;9.380;2023-08-17T07:15:44;6.80;;;2.38;;
78131;SDS011;67381;47.672;9.380;2023-08-17T07:18:12;9.15;;;2.47;;
78131;SDS011;67381;47.672;9.380;2023-08-17T07:20:39;5.97;;;2.67;;
78131;SDS011;67381;47.672;9.380;2023-08-17T07:23:06;7.97;;;2.55;;
78131;SDS011;67381;47.672;9.380;2023-08-17T07:25:34;6.95;;;1.80;;
78131;SDS011;67381;47.672;9.380;2023-08-17T07:28:02;8.20;;;2.25;;
78131;SDS011;67381;47.672;9.380;2023-08-17T07:30:29;7.40;;;2.88;;
78131;SDS011;67381;47.672;9.380;2023-08-17T07:32:56;7.65;;;2.45;;
78131;SDS011;67381;47.672;9.380;2023-08-17T07:35:24;5.57;;;2.58;;
78131;SDS011;67381;47.672;9.380;2023-08-17T07:37:51;4.80;;;2.92;;
78131;SDS011;67381;47.672;9.380;2023-08-17T07:40:25;5.00;;;2.78;;
78131;SDS011;67381;47.672;9.380;2023-08-17T07:42:53;4.90;;;2.45;;
78131;SDS011;67381;47.672;9.380;2023-08-17T07:45:20;4.43;;;2.05;;
78131;SDS011;67381;47.672;9.380;2023-08-17T07:47:47;4.85;;;2.33;;
78131;SDS011;67381;47.672;9.380;2023-08-17T07:50:18;3.92;;;2.53;;
78131;SDS011;67381;47.672;9.380;2023-08-17T07:52:45;5.47;;;2.30;;
78131;SDS011;67381;47.672;9.380;2023-08-17T07:55:13;5.40;;;2.40;;
78131;SDS011;67381;47.672;9.380;2023-08-17T07:57:40;5.13;;;2.50;;
78131;SDS011;67381;47.672;9.380;2023-08-17T08:00:08;4.40;;;2.30;;
78131;SDS011;67381;47.672;9.380;2023-08-17T08:02:35;6.32;;;2.80;;
78131;SDS011;67381;47.672;9.380;2023-08-17T08:05:03;5.07;;;2.53;;
78131;SDS011;67381;47.672;9.380;2023-08-17T08:07:31;4.05;;;2.00;;
78131;SDS011;67381;47.672;9.380;2023-08-17T08:09:58;4.45;;;2.10;;
78131;SDS011;67381;47.672;9.380;2023-08-17T08:12:25;4.85;;;2.38;;
78131;SDS011;67381;47.672;9.380;2023-08-17T08:14:53;4.13;;;2.47;;
78131;SDS011;67381;47.672;9.380;2023-08-17T08:17:20;3.90;;;2.65;;
78131;SDS011;67381;47.672;9.380;2023-08-17T08:19:47;4.18;;;2.40;;
78131;SDS011;67381;47.672;9.380;2023-08-17T08:22:15;6.07;;;2.53;;
78131;SDS011;67381;47.672;9.380;2023-08-17T08:24:42;6.50;;;3.45;;
78131;SDS011;67381;47.672;9.380;2023-08-17T08:27:10;5.75;;;2.60;;
78131;SDS011;67381;47.672;9.380;2023-08-17T08:29:37;3.92;;;2.33;;
78131;SDS011;67381;47.672;9.380;2023-08-17T08:32:04;6.80;;;3.05;;
78131;SDS011;67381;47.672;9.380;2023-08-17T08:34:32;4.45;;;2.88;;
78131;SDS011;67381;47.672;9.380;2023-08-17T08:36:59;5.93;;;3.47;;
78131;SDS011;67381;47.672;9.380;2023-08-17T08:39:27;5.68;;;2.47;;
78131;SDS011;67381;47.672;9.380;2023-08-17T08:41:54;5.55;;;2.47;;
78131;SDS011;67381;47.672;9.380;2023-08-17T08:44:22;6.93;;;2.53;;
78131;SDS011;67381;47.672;9.380;2023-08-17T08:46:50;6.43;;;2.75;;
78131;SDS011;67381;47.672;9.380;2023-08-17T08:49:20;9.10;;;2.50;;
78131;SDS011;67381;47.672;9.380;2023-08-17T08:51:50;4.18;;;2.30;;
78131;SDS011;67381;47.672;9.380;2023-08-17T08:54:20;3.70;;;2.40;;
78131;SDS011;67381;47.672;9.380;2023-08-17T08:59:25;4.40;;;2.60;;
78131;SDS011;67381;47.672;9.380;2023-08-17T09:01:55;3.80;;;2.30;;
78131;SDS011;67381;47.672;9.380;2023-08-17T09:04:23;4.38;;;2.35;;
78131;SDS011;67381;47.672;9.380;2023-08-17T09:06:51;5.22;;;2.38;;
78131;SDS011;67381;47.672;9.380;2023-08-17T09:09:19;5.30;;;2.60;;
78131;SDS011;67381;47.672;9.380;2023-08-17T09:11:47;6.93;;;3.03;;
78131;SDS011;67381;47.672;9.380;2023-08-17T09:14:14;3.80;;;2.50;;
78131;SDS011;67381;47.672;9.380;2023-08-17T09:16:41;5.75;;;2.95;;
78131;SDS011;67381;47.672;9.380;2023-08-17T09:19:09;5.93;;;2.60;;
78131;SDS011;67381;47.672;9.380;2023-08-17T09:21:37;6.47;;;3.10;;
78131;SDS011;67381;47.672;9.380;2023-08-17T09:24:04;5.35;;;2.42;;
78131;SDS011;67381;47.672;9.380;2023-08-17T09:26:34;5.63;;;2.72;;
78131;SDS011;67381;47.672;9.380;2023-08-17T09:29:15;7.95;;;3.08;;
78131;SDS011;67381;47.672;9.380;2023-08-17T09:31:45;4.93;;;2.65;;
78131;SDS011;67381;47.672;9.380;2023-08-17T09:34:20;8.88;;;3.53;;
78131;SDS011;67381;47.672;9.380;2023-08-17T09:36:47;5.53;;;3.05;;
78131;SDS011;67381;47.672;9.380;2023-08-17T09:39:15;6.40;;;3.40;;
78131;SDS011;67381;47.672;9.380;2023-08-17T09:41:44;3.80;;;2.35;;
78131;SDS011;67381;47.672;9.380;2023-08-17T09:44:11;6.93;;;3.45;;
78131;SDS011;67381;47.672;9.380;2023-08-17T09:46:41;8.75;;;3.47;;
78131;SDS011;67381;47.672;9.380;2023-08-17T09:49:09;6.75;;;3.50;;
78131;SDS011;67381;47.672;9.380;2023-08-17T09:51:37;5.53;;;2.78;;
78131;SDS011;67381;47.672;9.380;2023-08-17T09:54:17;6.05;;;2.83;;
78131;SDS011;67381;47.672;9.380;2023-08-17T09:56:47;6.07;;;3.03;;
78131;SDS011;67381;47.672;9.380;2023-08-17T09:59:17;7.13;;;2.97;;
78131;SDS011;67381;47.672;9.380;2023-08-17T10:01:45;6.80;;;3.60;;
78131;SDS011;67381;47.672;9.380;2023-08-17T10:04:15;5.95;;;3.22;;
78131;SDS011;67381;47.672;9.380;2023-08-17T10:06:48;5.05;;;3.10;;
78131;SDS011;67381;47.672;9.380;2023-08-17T10:09:23;6.30;;;2.80;;
78131;SDS011;67381;47.672;9.380;2023-08-17T10:11:56;5.35;;;3.50;;
78131;SDS011;67381;47.672;9.380;2023-08-17T10:14:32;4.90;;;3.28;;
78131;SDS011;67381;47.672;9.380;2023-08-17T10:17:07;4.43;;;3.30;;
78131;SDS011;67381;47.672;9.380;2023-08-17T10:22:12;6.13;;;3.85;;
78131;SDS011;67381;47.672;9.380;2023-08-17T10:24:45;6.95;;;3.20;;
78131;SDS011;67381;47.672;9.380;2023-08-17T10:27:13;5.70;;;3.70;;
78131;SDS011;67381;47.672;9.380;2023-08-17T10:29:41;9.27;;;4.25;;
78131;SDS011;67381;47.672;9.380;2023-08-17T10:32:09;4.32;;;3.47;;
78131;SDS011;67381;47.672;9.380;2023-08-17T10:34:43;6.43;;;3.40;;
78131;SDS011;67381;47.672;9.380;2023-08-17T10:37:14;4.00;;;3.17;;
78131;SDS011;67381;47.672;9.380;2023-08-17T10:39:45;5.55;;;3.20;;
78131;SDS011;67381;47.672;9.380;2023-08-17T10:42:13;7.38;;;3.15;;
78131;SDS011;67381;47.672;9.380;2023-08-17T10:44:47;7.32;;;3.70;;
78131;SDS011;67381;47.672;9.380;2023-08-17T10:47:28;7.97;;;4.68;;
78131;SDS011;67381;47.672;9.380;2023-08-17T10:50:04;8.27;;;4.50;;
78131;SDS011;67381;47.672;9.380;2023-08-17T10:52:34;6.25;;;4.28;;
78131;SDS011;67381;47.672;9.380;2023-08-17T10:55:08;4.03;;;2.97;;
78131;SDS011;67381;47.672;9.380;2023-08-17T11:00:17;6.43;;;3.42;;
78131;SDS011;67381;47.672;9.380;2023-08-17T11:02:52;7.00;;;3.80;;
78131;SDS011;67381;47.672;9.380;2023-08-17T11:05:34;5.53;;;3.38;;
78131;SDS011;67381;47.672;9.380;2023-08-17T11:08:01;7.55;;;3.60;;
78131;SDS011;67381;47.672;9.380;2023-08-17T11:10:29;6.15;;;4.15;;
78131;SDS011;67381;47.672;9.380;2023-08-17T11:13:00;5.55;;;3.80;;
78131;SDS011;67381;47.672;9.380;2023-08-17T11:15:38;5.00;;;3.33;;
78131;SDS011;67381;47.672;9.380;2023-08-17T11:18:12;7.22;;;3.90;;
78131;SDS011;67381;47.672;9.380;2023-08-17T11:20:42;6.43;;;4.00;;
78131;SDS011;67381;47.672;9.380;2023-08-17T11:23:09;5.60;;;4.28;;
78131;SDS011;67381;47.672;9.380;2023-08-17T11:25:37;6.38;;;4.05;;
78131;SDS011;67381;47.672;9.380;2023-08-17T11:28:11;8.70;;;4.03;;
78131;SDS011;67381;47.672;9.380;2023-08-17T11:30:40;6.90;;;3.75;;
78131;SDS011;67381;47.672;9.380;2023-08-17T11:33:13;6.00;;;3.55;;
78131;SDS011;67381;47.672;9.380;2023-08-17T11:35:40;6.45;;;4.07;;
78131;SDS011;67381;47.672;9.380;2023-08-17T11:38:08;7.72;;;3.38;;
78131;SDS011;67381;47.672;9.380;2023-08-17T11:40:35;6.50;;;4.05;;
78131;SDS011;67381;47.672;9.380;2023-08-17T11:43:03;7.63;;;4.22;;
78131;SDS011;67381;47.672;9.380;2023-08-17T11:45:31;5.82;;;4.20;;
78131;SDS011;67381;47.672;9.380;2023-08-17T11:47:59;6.25;;;4.50;;
78131;SDS011;67381;47.672;9.380;2023-08-17T11:50:29;5.63;;;4.05;;
78131;SDS011;67381;47.672;9.380;2023-08-17T11:52:59;7.20;;;4.05;;
78131;SDS011;67381;47.672;9.380;2023-08-17T11:55:28;7.25;;;4.53;;
78131;SDS011;67381;47.672;9.380;2023-08-17T11:57:55;5.97;;;3.90;;
78131;SDS011;67381;47.672;9.380;2023-08-17T12:00:23;7.32;;;4.53;;
78131;SDS011;67381;47.672;9.380;2023-08-17T12:02:55;8.35;;;4.55;;
78131;SDS011;67381;47.672;9.380;2023-08-17T12:05:23;7.10;;;3.95;;
78131;SDS011;67381;47.672;9.380;2023-08-17T12:07:52;5.05;;;3.70;;
78131;SDS011;67381;47.672;9.380;2023-08-17T12:10:19;13.95;;;4.32;;
78131;SDS011;67381;47.672;9.380;2023-08-17T12:12:47;7.43;;;4.20;;
78131;SDS011;67381;47.672;9.380;2023-08-17T12:15:18;11.10;;;4.35;;
78131;SDS011;67381;47.672;9.380;2023-08-17T12:17:46;12.05;;;3.70;;
78131;SDS011;67381;47.672;9.380;2023-08-17T12:20:15;6.43;;;3.65;;
78131;SDS011;67381;47.672;9.380;2023-08-17T12:22:46;7.10;;;4.93;;
78131;SDS011;67381;47.672;9.380;2023-08-17T12:25:14;6.47;;;4.65;;
78131;SDS011;67381;47.672;9.380;2023-08-17T12:27:42;6.03;;;4.35;;
78131;SDS011;67381;47.672;9.380;2023-08-17T12:30:31;7.35;;;4.47;;
78131;SDS011;67381;47.672;9.380;2023-08-17T12:32:59;8.07;;;4.00;;
78131;SDS011;67381;47.672;9.380;2023-08-17T12:35:27;6.95;;;4.43;;
78131;SDS011;67381;47.672;9.380;2023-08-17T12:37:57;9.27;;;3.97;;
78131;SDS011;67381;47.672;9.380;2023-08-17T12:40:24;10.40;;;5.38;;
78131;SDS011;67381;47.672;9.380;2023-08-17T12:42:52;6.75;;;4.40;;
78131;SDS011;67381;47.672;9.380;2023-08-17T12:45:19;9.57;;;4.50;;
78131;SDS011;67381;47.672;9.380;2023-08-17T12:47:46;6.18;;;3.92;;
78131;SDS011;67381;47.672;9.380;2023-08-17T12:50:14;6.47;;;4.10;;
78131;SDS011;67381;47.672;9.380;2023-08-17T12:52:42;5.50;;;3.65;;
78131;SDS011;67381;47.672;9.380;2023-08-17T12:55:12;6.82;;;3.88;;
78131;SDS011;67381;47.672;9.380;2023-08-17T12:57:40;6.63;;;4.22;;
78131;SDS011;67381;47.672;9.380;2023-08-17T13:00:07;7.63;;;3.95;;
78131;SDS011;67381;47.672;9.380;2023-08-17T13:02:35;7.10;;;4.22;;
78131;SDS011;67381;47.672;9.380;2023-08-17T13:05:03;7.13;;;4.40;;
78131;SDS011;67381;47.672;9.380;2023-08-17T13:07:30;5.90;;;3.92;;
78131;SDS011;67381;47.672;9.380;2023-08-17T13:09:58;6.63;;;4.18;;
78131;SDS011;67381;47.672;9.380;2023-08-17T13:12:26;5.97;;;4.00;;
78131;SDS011;67381;47.672;9.380;2023-08-17T13:14:53;6.50;;;4.32;;
78131;SDS011;67381;47.672;9.380;2023-08-17T13:17:20;7.43;;;4.30;;
78131;SDS011;67381;47.672;9.380;2023-08-17T13:19:50;7.95;;;4.50;;
78131;SDS011;67381;47.672;9.380;2023-08-17T13:22:20;6.72;;;4.68;;
78131;SDS011;67381;47.672;9.380;2023-08-17T13:24:47;6.65;;;3.97;;
78131;SDS011;67381;47.672;9.380;2023-08-17T13:27:17;7.32;;;4.68;;
78131;SDS011;67381;47.672;9.380;2023-08-17T13:29:44;8.27;;;4.13;;
78131;SDS011;67381;47.672;9.380;2023-08-17T13:32:12;8.85;;;4.03;;
78131;SDS011;67381;47.672;9.380;2023-08-17T13:34:45;7.78;;;4.50;;
78131;SDS011;67381;47.672;9.380;2023-08-17T13:37:12;6.22;;;4.68;;
78131;SDS011;67381;47.672;9.380;2023-08-17T13:39:39;6.47;;;4.18;;
78131;SDS011;67381;47.672;9.380;2023-08-17T13:42:07;6.30;;;4.47;;
78131;SDS011;67381;47.672;9.380;2023-08-17T13:44:34;9.35;;;4.70;;
78131;SDS011;67381;47.672;9.380;2023-08-17T13:47:02;9.20;;;4.63;;
78131;SDS011;67381;47.672;9.380;2023-08-17T13:49:29;6.47;;;3.70;;
78131;SDS011;67381;47.672;9.380;2023-08-17T13:51:56;6.40;;;4.72;;
78131;SDS011;67381;47.672;9.380;2023-08-17T13:54:24;5.65;;;3.85;;
78131;SDS011;67381;47.672;9.380;2023-08-17T13:56:51;5.97;;;3.95;;
78131;SDS011;67381;47.672;9.380;2023-08-17T13:59:22;7.07;;;4.38;;
78131;SDS011;67381;47.672;9.380;2023-08-17T14:01:49;5.50;;;3.95;;
78131;SDS011;67381;47.672;9.380;2023-08-17T14:04:16;6.15;;;3.53;;
78131;SDS011;67381;47.672;9.380;2023-08-17T14:06:44;6.35;;;4.00;;
78131;SDS011;67381;47.672;9.380;2023-08-17T14:09:15;6.53;;;3.92;;
78131;SDS011;67381;47.672;9.380;2023-08-17T14:11:42;5.57;;;3.17;;
78131;SDS011;67381;47.672;9.380;2023-08-17T14:14:13;7.45;;;3.47;;
78131;SDS011;67381;47.672;9.380;2023-08-17T14:16:41;6.13;;;3.00;;
78131;SDS011;67381;47.672;9.380;2023-08-17T14:19:09;5.35;;;3.38;;
78131;SDS011;67381;47.672;9.380;2023-08-17T14:21:37;8.13;;;4.25;;
78131;SDS011;67381;47.672;9.380;2023-08-17T14:24:04;5.80;;;3.83;;
78131;SDS011;67381;47.672;9.380;2023-08-17T14:26:33;6.15;;;4.28;;
78131;SDS011;67381;47.672;9.380;2023-08-17T14:29:04;5.68;;;3.80;;
78131;SDS011;67381;47.672;9.380;2023-08-17T14:31:31;6.53;;;3.50;;
78131;SDS011;67381;47.672;9.380;2023-08-17T14:33:59;4.45;;;3.33;;
78131;SDS011;67381;47.672;9.380;2023-08-17T14:36:34;6.05;;;3.45;;
78131;SDS011;67381;47.672;9.380;2023-08-17T14:39:01;7.47;;;3.92;;
78131;SDS011;67381;47.672;9.380;2023-08-17T14:41:29;7.22;;;3.47;;
78131;SDS011;67381;47.672;9.380;2023-08-17T14:43:59;5.53;;;3.22;;
78131;SDS011;67381;47.672;9.380;2023-08-17T14:46:28;6.47;;;3.17;;
78131;SDS011;67381;47.672;9.380;2023-08-17T14:48:55;5.20;;;3.38;;
78131;SDS011;67381;47.672;9.380;2023-08-17T14:51:23;7.18;;;3.05;;
78131;SDS011;67381;47.672;9.380;2023-08-17T14:53:56;7.05;;;3.15;;
78131;SDS011;67381;47.672;9.380;2023-08-17T14:56:24;6.93;;;4.22;;
78131;SDS011;67381;47.672;9.380;2023-08-17T14:58:51;6.53;;;3.40;;
78131;SDS011;67381;47.672;9.380;2023-08-17T15:01:18;6.22;;;4.40;;
78131;SDS011;67381;47.672;9.380;2023-08-17T15:03:49;6.88;;;4.05;;
78131;SDS011;67381;47.672;9.380;2023-08-17T15:06:16;11.13;;;3.65;;
78131;SDS011;67381;47.672;9.380;2023-08-17T15:08:54;9.38;;;3.80;;
78131;SDS011;67381;47.672;9.380;2023-08-17T15:11:22;5.45;;;3.75;;